createdAt,value
2023-02-16T00:02:39.577Z,899.03
2023-02-16T00:05:44.409Z,858.47
2023-02-16T00:08:49.184Z,831.72
2023-02-16T00:12:07.794Z,813.22
2023-02-16T00:15:19.428Z,838.35
2023-02-16T00:18:24.116Z,802.92
2023-02-16T00:21:28.690Z,875.33
2023-02-16T00:24:32.618Z,883.67
2023-02-16T00:27:36.363Z,939.13
2023-02-16T00:30:40.597Z,1024.43
2023-02-16T00:33:43.789Z,1018.33
2023-02-16T00:36:48.341Z,910.13
2023-02-16T00:39:51.549Z,882.28
2023-02-16T00:42:57.233Z,746.67
2023-02-16T00:46:00.893Z,752.70
2023-02-16T00:49:04.098Z,786.95
2023-02-16T00:52:35.907Z,776.85
2023-02-16T00:55:40.487Z,787.03
2023-02-16T00:58:43.741Z,754.05
2023-02-16T01:01:47.181Z,791.15
2023-02-16T01:04:50.642Z,658.15
2023-02-16T01:08:12.545Z,709.80
2023-02-16T01:11:15.785Z,798.92
2023-02-16T01:14:18.992Z,690.85
2023-02-16T01:17:22.822Z,708.95
2023-02-16T01:20:27.519Z,730.47
2023-02-16T01:23:32.082Z,649.67
2023-02-16T01:26:40.700Z,618.13
2023-02-16T01:29:43.954Z,601.42
2023-02-16T01:32:51.552Z,674.25
2023-02-16T01:35:56.123Z,731.35
2023-02-16T01:39:00.776Z,778.10
2023-02-16T01:42:12.060Z,1001.30
2023-02-16T01:45:19.468Z,1000.20
2023-02-16T01:48:27.059Z,1018.05
2023-02-16T01:51:35.598Z,1001.45
2023-02-16T01:54:45.480Z,1027.25
2023-02-16T01:57:52.378Z,1023.30
2023-02-16T02:01:40.871Z,1036.60
2023-02-16T02:05:05.581Z,1004.95
2023-02-16T02:08:18.662Z,1019.42
2023-02-16T02:11:28.820Z,1006.95
2023-02-16T02:14:39.294Z,1040.20
2023-02-16T02:17:42.602Z,996.55
2023-02-16T02:21:40.229Z,994.17
2023-02-16T02:25:09.617Z,1027.28
2023-02-16T02:28:18.067Z,785.95
2023-02-16T02:31:37.860Z,984.75
2023-02-16T02:34:59.901Z,941.95
2023-02-16T02:38:10.702Z,910.63
2023-02-16T02:41:22.432Z,993.58
2023-02-16T02:44:30.303Z,971.13
2023-02-16T02:47:42.263Z,957.95
2023-02-16T02:51:07.652Z,1012.35
2023-02-16T02:54:34.292Z,969.72
2023-02-16T02:58:01.797Z,1012.05
2023-02-16T03:01:07.631Z,1006.05
2023-02-16T03:04:13.989Z,1014.47
2023-02-16T03:07:18.307Z,1032.28
2023-02-16T03:10:41.845Z,1042.47
2023-02-16T03:13:48.595Z,1018.70
2023-02-16T03:17:14.105Z,1000.30
2023-02-16T03:20:35.261Z,1043.85
2023-02-16T03:23:58.588Z,994.88
2023-02-16T03:27:20.083Z,943.95
2023-02-16T03:30:27.664Z,961.58
2023-02-16T03:33:33.143Z,986.45
2023-02-16T03:36:38.176Z,971.83
2023-02-16T03:39:55.414Z,987.22
2023-02-16T03:43:01.257Z,1001.60
2023-02-16T03:46:04.595Z,977.78
2023-02-16T03:49:09.266Z,921.13
2023-02-16T03:52:12.479Z,928.70
2023-02-16T03:55:16.197Z,993.38
2023-02-16T03:58:20.848Z,1013.47
2023-02-16T04:01:24.175Z,1003.78
2023-02-16T04:04:28.729Z,968.67
2023-02-16T04:07:32.003Z,977.85
2023-02-16T04:10:35.577Z,994.88
2023-02-16T04:13:37.723Z,943.13
2023-02-16T04:16:40.906Z,915.10
2023-02-16T04:19:45.507Z,918.25
2023-02-16T04:22:49.689Z,939.17
2023-02-16T04:25:52.937Z,960.50
2023-02-16T04:28:56.080Z,939.88
2023-02-16T04:31:59.780Z,899.55
2023-02-16T04:35:04.436Z,940.13
2023-02-16T04:38:07.699Z,908.03
2023-02-16T04:41:10.886Z,919.80
2023-02-16T04:44:14.194Z,926.85
2023-02-16T04:47:17.577Z,945.85
2023-02-16T04:50:22.254Z,915.47
2023-02-16T04:53:25.354Z,884.38
2023-02-16T04:56:29.267Z,914.25
2023-02-16T04:59:32.581Z,942.25
2023-02-16T05:02:35.858Z,930.28
2023-02-16T05:05:41.563Z,998.92
2023-02-16T05:08:45.023Z,976.80
2023-02-16T05:12:05.613Z,997.60
2023-02-16T05:15:08.959Z,994.38
2023-02-16T05:18:12.344Z,1003.70
2023-02-16T05:21:31.781Z,1000.05
2023-02-16T05:27:58.258Z,1027.28
2023-02-16T05:31:11.369Z,982.05
2023-02-16T05:34:55.351Z,955.15
2023-02-16T05:38:02.917Z,935.65
2023-02-16T05:41:06.350Z,952.80
2023-02-16T05:44:10.308Z,896.85
2023-02-16T05:47:13.603Z,1043.10
2023-02-16T05:50:18.295Z,977.70
2023-02-16T05:53:22.966Z,1060.07
2023-02-16T05:56:27.617Z,1033.97
2023-02-16T05:59:30.869Z,990.47
2023-02-16T06:02:34.107Z,977.83
2023-02-16T06:05:40.178Z,978.78
2023-02-16T06:08:44.910Z,885.25
2023-02-16T06:11:48.308Z,949.95
2023-02-16T06:14:51.504Z,952.20
2023-02-16T06:17:54.678Z,1015.28
2023-02-16T06:20:58.873Z,996.67
2023-02-16T06:24:03.771Z,1027.70
2023-02-16T06:27:07.022Z,1063.78
2023-02-16T06:30:12.331Z,1049.20
2023-02-16T06:33:17.666Z,1040.45
2023-02-16T06:36:21.468Z,1041.28
2023-02-16T06:39:26.047Z,1047.63
2023-02-16T06:42:29.199Z,1058.18
2023-02-16T06:45:32.418Z,1034.50
2023-02-16T06:48:35.582Z,1060.13
2023-02-16T06:51:38.773Z,1020.67
2023-02-16T06:54:43.471Z,1060.45
2023-02-16T06:57:46.623Z,1068.95
2023-02-16T07:00:50.061Z,1537.85
2023-02-16T07:03:55.108Z,1084.82
2023-02-16T07:06:58.289Z,1035.30
2023-02-16T07:10:03.460Z,1039.85
2023-02-16T07:13:06.623Z,1071.75
2023-02-16T07:16:10.280Z,987.72
2023-02-16T07:19:13.520Z,1038.38
2023-02-16T07:22:17.565Z,1074.38
2023-02-16T07:25:25.162Z,1056.75
2023-02-16T07:28:28.737Z,1029.95
2023-02-16T07:31:32.352Z,1091.65
2023-02-16T07:34:35.625Z,1067.90
2023-02-16T07:37:38.969Z,1042.68
2023-02-16T07:40:43.631Z,986.50
2023-02-16T07:43:47.556Z,985.88
2023-02-16T07:46:50.807Z,978.95
2023-02-16T07:49:54.199Z,1023.35
2023-02-16T07:52:57.392Z,935.53
2023-02-16T07:56:02.040Z,956.15
2023-02-16T07:59:05.532Z,1054.55
2023-02-16T08:02:08.985Z,968.50
2023-02-16T08:05:12.348Z,995.00
2023-02-16T08:08:15.600Z,1032.75
2023-02-16T08:11:22.251Z,1122.97
2023-02-16T08:14:25.654Z,1193.22
2023-02-16T08:17:28.996Z,1233.55
2023-02-16T08:20:51.164Z,1100.82
2023-02-16T08:23:57.704Z,1999.90
2023-02-16T08:27:03.834Z,1524.28
2023-02-16T08:30:12.751Z,1143.75
2023-02-16T08:33:16.072Z,1999.90
2023-02-16T08:36:20.489Z,1538.07
2023-02-16T08:39:25.938Z,1999.90
2023-02-16T08:42:30.492Z,1756.30
2023-02-16T08:45:33.712Z,1999.90
2023-02-16T08:48:36.937Z,1999.90
2023-02-16T08:51:43.748Z,1999.90
2023-02-16T08:54:46.947Z,1760.85
2023-02-16T08:57:51.670Z,1557.35
2023-02-16T09:00:54.986Z,1129.20
2023-02-16T09:03:59.001Z,1243.93
2023-02-16T09:07:02.467Z,1077.90
2023-02-16T09:10:06.760Z,1805.68
2023-02-16T09:13:14.938Z,1135.68
2023-02-16T09:16:21.255Z,1221.28
2023-02-16T09:19:24.595Z,1742.50
2023-02-16T09:22:27.950Z,1627.90
2023-02-16T09:25:31.371Z,1182.18
2023-02-16T09:28:36.275Z,1066.20
2023-02-16T09:31:40.041Z,1308.80
2023-02-16T09:34:44.621Z,1472.22
2023-02-16T09:37:47.823Z,1383.20
2023-02-16T09:40:53.149Z,1305.22
2023-02-16T09:44:01.102Z,1420.68
2023-02-16T09:47:11.235Z,1204.32
2023-02-16T09:50:27.814Z,1201.40
2023-02-16T09:53:45.109Z,1198.45
2023-02-16T09:56:55.234Z,1188.65
2023-02-16T10:00:08.393Z,1129.50
2023-02-16T10:03:32.023Z,1382.63
2023-02-16T10:06:52.646Z,1769.35
2023-02-16T10:09:57.243Z,1140.75
2023-02-16T10:13:06.058Z,1242.50
2023-02-16T10:16:17.170Z,1126.53
2023-02-16T10:19:23.935Z,1681.20
2023-02-16T10:22:34.120Z,1110.00
2023-02-16T10:25:45.038Z,1137.88
2023-02-16T10:28:50.387Z,1107.40
2023-02-16T10:32:04.907Z,1217.57
2023-02-16T10:35:20.457Z,1505.85
2023-02-16T10:38:32.003Z,1563.13
2023-02-16T10:41:39.830Z,1246.18
2023-02-16T10:44:47.985Z,1232.97
2023-02-16T10:47:52.592Z,1509.30
2023-02-16T10:51:00.226Z,1240.85
2023-02-16T10:54:06.917Z,1094.57
2023-02-16T10:57:23.428Z,1033.80
2023-02-16T11:00:40.125Z,934.83
2023-02-16T11:03:49.635Z,994.63
2023-02-16T11:07:05.047Z,1009.83
2023-02-16T11:10:21.327Z,1647.10
2023-02-16T11:13:32.451Z,937.47
2023-02-16T11:16:35.910Z,901.33
2023-02-16T11:19:42.706Z,843.65
2023-02-16T11:22:45.960Z,858.42
2023-02-16T11:25:58.245Z,1715.03
2023-02-16T11:29:18.354Z,825.28
2023-02-16T11:32:22.617Z,1256.80
2023-02-16T11:35:27.650Z,1264.03
2023-02-16T11:38:33.764Z,878.70
2023-02-16T11:41:37.386Z,875.75
2023-02-16T11:44:44.502Z,872.70
2023-02-16T11:47:54.823Z,950.45
2023-02-16T11:54:06.357Z,950.63
2023-02-16T11:57:15.673Z,825.75
2023-02-16T12:00:21.966Z,796.05
2023-02-16T12:03:43.964Z,1131.05
2023-02-16T12:07:04.576Z,1498.88
2023-02-16T12:10:11.287Z,1324.95
2023-02-16T12:13:23.449Z,1384.50
2023-02-16T12:16:34.045Z,1181.40
2023-02-16T12:19:42.087Z,1628.28
2023-02-16T12:22:49.877Z,1478.13
2023-02-16T12:26:05.616Z,1438.00
2023-02-16T12:29:23.987Z,1460.90
2023-02-16T12:32:44.314Z,1534.88
2023-02-16T12:39:04.843Z,1474.97
2023-02-16T12:42:24.414Z,1635.82
2023-02-16T12:45:32.047Z,1270.60
2023-02-16T12:48:42.638Z,1611.63
2023-02-16T12:51:51.455Z,1598.30
2023-02-16T12:55:00.683Z,1293.30
2023-02-16T12:58:11.021Z,1480.88
2023-02-16T13:04:25.770Z,1019.10
2023-02-16T13:07:33.969Z,855.47
2023-02-16T13:10:48.266Z,972.97
2023-02-16T13:13:54.494Z,1071.28
2023-02-16T13:17:02.080Z,1051.13
2023-02-16T13:20:13.039Z,1168.90
2023-02-16T13:23:49.842Z,1017.80
2023-02-16T13:27:11.962Z,991.63
2023-02-16T13:30:58.507Z,1002.17
2023-02-16T13:34:29.603Z,981.35
2023-02-16T13:37:51.449Z,1012.15
2023-02-16T13:41:20.975Z,1005.72
2023-02-16T13:44:29.445Z,786.63
2023-02-16T13:47:38.418Z,1013.05
2023-02-16T13:50:41.896Z,987.40
2023-02-16T13:53:52.617Z,923.47
2023-02-16T13:56:56.200Z,980.78
2023-02-16T14:00:07.453Z,967.67
2023-02-16T14:03:38.777Z,961.25
2023-02-16T14:06:42.976Z,944.28
2023-02-16T14:09:49.983Z,955.58
2023-02-16T14:12:53.559Z,997.50
2023-02-16T14:16:01.352Z,1005.92
2023-02-16T14:19:19.483Z,1139.47
2023-02-16T14:22:24.887Z,956.53
2023-02-16T14:25:40.432Z,961.67
2023-02-16T14:29:13.753Z,964.13
2023-02-16T14:32:26.340Z,977.83
2023-02-16T14:35:33.992Z,1020.60
2023-02-16T14:38:39.103Z,1008.58
2023-02-16T14:41:42.938Z,1090.60
2023-02-16T14:45:03.819Z,998.75
2023-02-16T14:48:21.933Z,1029.78
2023-02-16T14:51:58.088Z,1021.05
2023-02-16T14:55:35.013Z,1084.78
2023-02-16T14:58:48.750Z,1018.75
2023-02-16T15:01:52.121Z,1042.47
2023-02-16T15:04:58.212Z,1064.90
2023-02-16T15:08:10.237Z,1011.58
2023-02-16T15:11:23.229Z,982.05
2023-02-16T15:14:28.019Z,942.92
2023-02-16T15:17:35.628Z,989.65
2023-02-16T15:20:41.207Z,1007.45
2023-02-16T15:23:55.464Z,1517.45
2023-02-16T15:27:01.885Z,983.47
2023-02-16T15:30:09.585Z,1499.05
2023-02-16T15:33:28.417Z,1770.18
2023-02-16T15:36:39.589Z,1764.60
2023-02-16T15:39:52.057Z,1094.45
2023-02-16T15:43:40.030Z,1364.18
2023-02-16T15:46:45.764Z,1359.07
2023-02-16T15:49:54.181Z,1406.15
2023-02-16T15:53:00.496Z,1107.75
2023-02-16T15:56:07.137Z,1138.68
2023-02-16T15:59:31.491Z,1200.82
2023-02-16T16:02:39.282Z,1142.28
2023-02-16T16:05:43.741Z,1105.95
2023-02-16T16:08:49.087Z,1062.88
2023-02-16T16:11:54.438Z,1091.80
2023-02-16T16:15:01.593Z,1054.45
2023-02-16T16:18:07.017Z,1120.18
2023-02-16T16:21:17.082Z,1048.75
2023-02-16T16:24:38.817Z,1087.60
2023-02-16T16:27:49.196Z,1058.45
2023-02-16T16:31:08.443Z,1107.55
2023-02-16T16:34:32.617Z,1064.68
2023-02-16T16:37:38.381Z,1119.05
2023-02-16T16:40:45.565Z,1089.68
2023-02-16T16:43:56.780Z,1066.97
2023-02-16T16:47:13.643Z,1073.72
2023-02-16T16:50:33.762Z,1101.30
2023-02-16T16:53:51.653Z,1006.15
2023-02-16T16:56:56.377Z,1034.65
2023-02-16T17:00:00.243Z,1023.28
2023-02-16T17:03:05.944Z,1080.35
2023-02-16T17:06:09.761Z,1058.68
2023-02-16T17:09:15.834Z,1301.32
2023-02-16T17:12:22.226Z,1144.75
2023-02-16T17:15:44.392Z,1116.90
2023-02-16T17:18:48.338Z,1110.78
2023-02-16T17:21:52.368Z,1221.65
2023-02-16T17:24:56.184Z,1311.90
2023-02-16T17:28:03.404Z,1233.55
2023-02-16T17:31:07.836Z,1357.22
2023-02-16T17:34:11.184Z,1262.25
2023-02-16T17:37:14.940Z,1352.90
2023-02-16T17:40:21.862Z,1230.22
2023-02-16T17:43:28.463Z,1202.72
2023-02-16T17:46:34.264Z,1249.63
2023-02-16T17:49:37.738Z,1193.30
2023-02-16T17:52:42.020Z,1104.53
2023-02-16T17:55:49.267Z,1137.65
2023-02-16T17:58:54.312Z,1103.97
2023-02-16T18:01:58.308Z,1176.25
2023-02-16T18:05:02.352Z,1180.53
2023-02-16T18:08:06.997Z,1255.50
2023-02-16T18:11:10.425Z,1340.47
2023-02-16T18:14:15.303Z,1196.32
2023-02-16T18:17:18.810Z,1202.60
2023-02-16T18:20:22.602Z,1238.65
2023-02-16T18:23:25.914Z,1170.88
2023-02-16T18:26:33.279Z,1121.22
2023-02-16T18:29:59.762Z,1073.45
2023-02-16T18:33:03.513Z,1202.53
2023-02-16T18:36:07.746Z,1124.55
2023-02-16T18:39:12.221Z,1151.65
2023-02-16T18:42:15.860Z,1198.57
2023-02-16T18:45:21.175Z,1249.13
2023-02-16T18:48:25.204Z,1166.00
2023-02-16T18:51:32.112Z,1177.95
2023-02-16T18:54:35.656Z,1248.78
2023-02-16T18:57:39.340Z,1162.38
2023-02-16T19:00:45.033Z,1142.30
2023-02-16T19:03:48.546Z,1149.68
2023-02-16T19:06:52.050Z,1185.03
2023-02-16T19:09:55.319Z,1118.28
2023-02-16T19:13:01.168Z,1137.78
2023-02-16T19:16:07.793Z,1164.45
2023-02-16T19:19:11.691Z,1150.00
2023-02-16T19:22:15.464Z,1178.95
2023-02-16T19:25:19.025Z,1208.13
2023-02-16T19:28:22.438Z,1260.53
2023-02-16T19:31:29.789Z,1232.82
2023-02-16T19:34:34.982Z,1290.43
2023-02-16T19:37:38.749Z,1157.30
2023-02-16T19:40:42.598Z,1168.35
2023-02-16T19:43:47.124Z,1208.55
2023-02-16T19:46:52.599Z,1224.78
2023-02-16T19:49:59.650Z,1183.10
2023-02-16T19:53:03.053Z,1884.20
2023-02-16T19:56:09.328Z,1191.15
2023-02-16T19:59:13.090Z,1176.15
2023-02-16T20:02:18.135Z,1499.78
2023-02-16T20:05:21.876Z,1265.97
2023-02-16T20:08:25.333Z,1153.00
2023-02-16T20:11:30.653Z,1191.78
2023-02-16T20:14:34.474Z,1145.28
2023-02-16T20:17:39.358Z,1184.40
2023-02-16T20:20:43.062Z,1179.47
2023-02-16T20:23:48.543Z,1158.70
2023-02-16T20:26:52.489Z,1165.75
2023-02-16T20:29:58.962Z,1191.72
2023-02-16T20:33:03.988Z,1153.07
2023-02-16T20:36:07.683Z,1231.45
2023-02-16T20:39:11.446Z,1225.03
2023-02-16T20:42:14.905Z,1247.07
2023-02-16T20:45:18.607Z,1227.15
2023-02-16T20:48:24.162Z,1237.65
2023-02-16T20:51:28.183Z,1405.13
2023-02-16T20:54:31.687Z,1171.65
2023-02-16T20:57:36.527Z,1196.68
2023-02-16T21:00:39.966Z,1165.05
2023-02-16T21:03:44.792Z,1447.03
2023-02-16T21:06:48.228Z,1133.95
2023-02-16T21:09:51.982Z,1400.00
2023-02-16T21:12:55.325Z,1906.00
2023-02-16T21:15:58.725Z,1172.80
2023-02-16T21:19:07.261Z,1400.55
2023-02-16T21:22:15.106Z,1301.35
2023-02-16T21:25:18.733Z,1249.22
2023-02-16T21:28:22.863Z,1195.10
2023-02-16T21:31:27.523Z,1320.80
2023-02-16T21:34:32.415Z,1232.35
2023-02-16T21:37:38.606Z,1293.40
2023-02-16T21:40:59.925Z,1233.25
2023-02-16T21:44:06.936Z,1248.32
2023-02-16T21:47:30.491Z,1499.28
2023-02-16T21:50:40.323Z,1263.82
2023-02-16T21:53:44.301Z,1121.25
2023-02-16T21:56:52.136Z,1204.75
2023-02-16T21:59:55.571Z,1247.05
2023-02-16T22:03:00.702Z,1326.03
2023-02-16T22:06:06.847Z,1259.70
2023-02-16T22:09:12.570Z,1293.47
2023-02-16T22:12:15.929Z,1245.30
2023-02-16T22:15:19.593Z,1278.68
2023-02-16T22:18:22.955Z,1566.15
2023-02-16T22:21:29.014Z,1088.43
2023-02-16T22:24:32.558Z,1244.80
2023-02-16T22:27:36.020Z,1061.53
2023-02-16T22:30:39.359Z,1120.07
2023-02-16T22:33:43.117Z,1277.88
2023-02-16T22:36:48.053Z,1289.68
2023-02-16T22:39:51.988Z,1309.35
2023-02-16T22:42:55.505Z,1188.82
2023-02-16T22:45:58.885Z,1227.72
2023-02-16T22:49:02.477Z,1301.88
2023-02-16T22:52:08.727Z,1210.97
2023-02-16T22:55:12.069Z,1126.05
2023-02-16T22:58:15.609Z,1129.53
2023-02-16T23:01:21.133Z,1128.47
2023-02-16T23:04:24.846Z,1063.50
2023-02-16T23:07:32.418Z,1058.43
2023-02-16T23:10:36.677Z,1135.88
2023-02-16T23:13:41.429Z,1066.95
2023-02-16T23:16:46.330Z,1340.70
2023-02-16T23:19:51.828Z,1336.13
2023-02-16T23:22:56.471Z,1067.57
2023-02-16T23:26:00.985Z,1114.95
2023-02-16T23:29:07.180Z,1107.78
2023-02-16T23:32:11.442Z,1085.47
2023-02-16T23:35:14.809Z,1059.80
2023-02-16T23:38:19.754Z,1100.40
2023-02-16T23:41:23.021Z,1115.68
2023-02-16T23:44:26.528Z,1045.03
2023-02-16T23:47:29.926Z,1041.78
2023-02-16T23:50:33.604Z,1094.80
2023-02-16T23:53:38.304Z,1077.43
2023-02-16T23:56:47.440Z,1136.68
2023-02-16T23:59:50.591Z,1115.30
